Gran Canaria departure Airport Las Palmas, 08/05/2026

Real Time departures at Gran Canaria Airport today, 13:03 UTC

Departure Information Gran Canaria – Las Palmas Airport departures board in real-timet hourly updated. See all current departures from Gran canaria Airport to european flight destinations.

Flight time to Gran Canaria – flight duration to Las Palmas, from UK, Norway, Sweden, Denmark, Netherlands to Las Palmas

The Flight times between Las Palmas Airport and Eurpean Airports in UK, Netherlands and Scandinavia are regulary between 4:30 and 6:30 hours within Nonstop-flights. Generally the return flight from Gran Canaria is mostly an estimated half hour shorter in comparison with the outward flight. Reason are the tailwinds which tendencially head to north in common flight altitudes.

Flight times generally vary about 30 minutes depending on major wind directions and selected flight path.

Current departures from Gran Canaria Airport data in real time

Outgoing Flights timetable Gran canaria

Ankünfte von – bis
Aktuelle Ankunftszeit Verspätung (rot) Fugnummer Fluglinie Abflughafen Terminal Checkin DeskGate
13:05BA 2709BritishLondon (LGW)1123-124D
13:2200:17VY 1177VuelingValencia (VLC)1119-120C
13:15NT 538Binter CanariasLanzarote Island (ACE)1101-106A
13:15ZN 538NaysaLanzarote Island (ACE)1101-106A
13:20NT 316Binter CanariasSta Cruz de la Palma, La Palma Island (SPC)1101-106A
13:20RSC 316CanariasSta Cruz de la Palma, La Palma Island (SPC)1101-106A
13:4600:21IB 5083IberiaBarcelona (BCN)1119-121C
13:4600:21LL 5292LevelBarcelona (BCN)1119-121C
13:4600:21QR 3684QatarBarcelona (BCN)1119-121C
13:4600:21VY 3011VuelingBarcelona (BCN)1119-121C
13:30NT 137Binter CanariasTenerife Island (TFN)1101-106A
13:30NT 236Binter CanariasFuerteventura Island (FUE)1101-106A
13:30ZN 137NaysaTenerife Island (TFN)1101-106A
13:30ZN 236NaysaFuerteventura Island (FUE)1101-106A
13:35TP 1117TAP Air PortugalLisbon (LIS)1317-318C
13:4500:05VY 3067VuelingMálaga (AGP)1119-120B
13:45NT 823Binter CanariasTenerife Island (TFS)1101-106A
13:45RSC 823CanariasTenerife Island (TFS)1101-106A
14:003Z 7317Smartwings PolandWarsaw (WAW)1313-315C
14:00NT 141Binter CanariasTenerife Island (TFN)1116-116A
14:00NT 246Binter CanariasFuerteventura Island (FUE)1101-106A
14:00PM 627CanaryflyTenerife Island (TFN)1116-116A
14:00RSC 141CanariasTenerife Island (TFN)1101-106A
14:00RSC 246CanariasFuerteventura Island (FUE)1101-106A
14:20D8 5706Norwegian Air SwedenOslo (OSL)1227-228C
14:20DY 5706Norwegian Air ShuttleOslo (OSL)1227-228C
14:30NT 230Binter CanariasFuerteventura Island (FUE)1101-106A
14:30NT 5472Binter CanariasSantander (SDR)1111-112B
14:30NT 548Binter CanariasLanzarote Island (ACE)1116-116A
14:30PM 731CanaryflyLanzarote Island (ACE)1116-116A
14:30RSC 230CanariasFuerteventura Island (FUE)1101-106A
14:30ZN 548NaysaLanzarote Island (ACE)1101-106A
14:354Y 303Flight AlaskaFrankfurt-am-Main ()
14:35NT 5802Binter CanariasValencia (VLC)1111-112C
14:40AA 8816AmericanMadrid (MAD)1126-126C
14:40BA 7105BritishMadrid (MAD)1126-126C
14:40I2 1610Iberia ExpressMadrid (MAD)1126-126C
14:40IB 1610IberiaMadrid (MAD)1126-126C
14:40OR 1660TUI Nederland (Netherlands)Groningen (GRQ)1332-334C
14:40QR 6954QatarMadrid (MAD)1126-126C
14:40VY 5221VuelingMadrid (MAD)1126-126C
15:00NT 147Binter CanariasTenerife Island (TFN)1101-106A
15:00NT 254Binter CanariasFuerteventura Island (FUE)1101-106A
15:00NT 5702Binter CanariasMurcia (RMU)1111-112C
15:00RSC 147CanariasTenerife Island (TFN)1101-106A
15:00SK 4698SASOslo ()
15:00ZN 254NaysaFuerteventura Island (FUE)1101-106A
15:05NT 5242Binter CanariasRanón (OVD)1111-112B
15:20NT 827Binter CanariasTenerife Island (TFS)1101-106A
15:20ZN 827NaysaTenerife Island (TFS)1101-106A
15:30NT 149Binter CanariasTenerife Island (TFN)1101-106A
15:30RSC 149CanariasTenerife Island (TFN)1101-106A
15:45NT 556Binter CanariasLanzarote Island (ACE)1101-106A
15:45NT 6004Binter CanariasMadrid (MAD)1111-112C
15:45ZN 556NaysaLanzarote Island (ACE)1101-106A
15:55IB 5075IberiaBarcelona (BCN)1119-120B
15:55LL 5282LevelBarcelona (BCN)1119-120B
15:55QR 3710QatarBarcelona (BCN)1119-120B
15:55VY 3003VuelingBarcelona (BCN)1119-120B
15:55VY 3047VuelingSeville (SVQ)1119-120B
16:00NT 151Binter CanariasTenerife Island (TFN)1116-116A
16:00NT 356Binter CanariasAlajero, La Gomera Island (GMZ)
16:00NT 380Binter CanariasEl Hierro Island (VDE)1101-106A
16:00PM 623CanaryflyTenerife Island (TFN)1116-116A
16:00RSC 151CanariasTenerife Island (TFN)1101-106A
16:00RSC 356CanariasLa Gomera ()1101-106A
16:00ZN 380NaysaEl Hierro Island (VDE)1101-106A
16:15NT 4072Binter CanariasFunchal (FNC)1111-112C
16:20NT 258Binter CanariasFuerteventura Island (FUE)1101-106A
16:20RSC 258CanariasFuerteventura Island (FUE)1101-106A
16:30DE 1405CondorFrankfurt-am-Main (FRA)1320-325C
16:30EY 6926EtihadFrankfurt-am-Main (FRA)1320-325C
16:30FI 967IcelandairReykjavik (KEF)
16:30NT 153Binter CanariasTenerife Island (TFN)1101-106A
16:30NT 558Binter CanariasLanzarote Island (ACE)1101-106A
16:30ZN 153NaysaTenerife Island (TFN)1101-106A
16:30ZN 558NaysaLanzarote Island (ACE)1101-106A
16:35VY 3201VuelingAlicante (ALC)1119-121C
16:40AV 6031AviancaMadrid (MAD)1125-126C
16:40I2 1614Iberia ExpressMadrid (MAD)1125-126C
16:40IB 1614IberiaMadrid (MAD)1125-126C
16:40LA 1660LATAMMadrid (MAD)1125-126C
16:40QR 6564QatarMadrid (MAD)1125-126C
16:40VY 3271VuelingBilbao (BIO)1119-121C
16:40VY 5268VuelingMadrid (MAD)1125-126C
16:45DE 1519CondorHamburg (HAM)1320-325C
16:554Y 315Eurowings DiscoverMunich (MUC)1308-310C
16:55X3 2259TUIflyFrankfurt-am-Main (FRA)1327-333C
16:55ZN 566NaysaLanzarote Island (ACE)1101-106A
17:00NT 161Binter CanariasTenerife Island (TFN)1101-106A
17:00NT 330Binter CanariasSta Cruz de la Palma, La Palma Island (SPC)1101-106A
17:00NT 566Binter CanariasLanzarote Island (ACE)
17:00PM 875CanaryflyFuerteventura Island (FUE)1116-116A
17:00RSC 161CanariasTenerife Island (TFN)1101-106A
17:00RSC 330CanariasSta Cruz de la Palma, La Palma Island (SPC)1101-106A
17:00UX 2127Air EuropaFuerteventura Island (FUE)1116-116A
17:10TB 1552TUI BelgiumBrussels (BRU)1327-333C
17:20NT 264Binter CanariasFuerteventura Island (FUE)1101-106A
17:25X3 2115TUIflyDüsseldorf (DUS)1327-333C
17:25XR 564Corendon EuropeNuremberg (NUE)1316-318C
17:30NT 568Binter CanariasLanzarote Island (ACE)1101-106A
17:30ZN 568NaysaLanzarote Island (ACE)1101-106A
17:35NT 837Binter CanariasTenerife Island (TFS)1101-106A
17:35RSC 837CanariasTenerife Island (TFS)1101-106A
17:45FR 2967RyanairBudapest (BUD)1402-403C
17:45WK 203Edelweiss AirZurich (ZRH)1305-307C
17:50DE 1523CondorMunich (MUC)
17:50EY 6951EtihadMunich (MUC)
18:00AD 6997AzulMadrid (MAD)
18:00AM 6830AeromexicoMadrid (MAD)
18:00EY 7563EtihadMadrid (MAD)
18:00NT 171Binter CanariasTenerife Island (TFN)
18:00UX 9165Air EuropaMadrid (MAD)
18:00ZN 171NaysaTenerife Island (TFN)
18:10X3 2169TUIflyStuttgart (STR)
18:15NT 570Binter CanariasLanzarote Island (ACE)
18:15ZN 570NaysaLanzarote Island (ACE)
18:30NT 839Binter CanariasTenerife Island (TFS)
18:30ZN 839NaysaTenerife Island (TFS)
18:35FR 2811RyanairLondon (STN)
18:40NT 272Binter CanariasFuerteventura Island (FUE)
18:40RSC 272CanariasFuerteventura Island (FUE)
18:45U2 5726easyJetSouthend (SEN)
18:50AV 6040AviancaMadrid (MAD)
18:50BA 7106BritishMadrid (MAD)
18:50I2 1622Iberia ExpressMadrid (MAD)
18:50IB 1622IberiaMadrid (MAD)
18:50LA 1667LATAMMadrid (MAD)
18:50QR 6891QatarMadrid (MAD)
18:50VY 5410VuelingMadrid (MAD)
18:55X3 2263TUIflyHanover (HAJ)
19:00NT 179Binter CanariasTenerife Island (TFN)
19:00NT 280Binter CanariasFuerteventura Island (FUE)
19:00NT 576Binter CanariasLanzarote Island (ACE)
19:00RSC 179CanariasTenerife Island (TFN)
19:00RSC 280CanariasFuerteventura Island (FUE)
19:00ZN 576NaysaLanzarote Island (ACE)

Car Hire at Airport Gran Canaria »»

Gran Canaria Car hire tours & offers

about rental-discounts & car-insurance at Gran Canaria Airport Car Rental offers. Especially to visitors, which are planning to discover Gran Canaria with a… »»»

Gran Canaria weather-report: hourly temperatures & day-by-day forecast for 10 days »»

weather forecast & meteogram for Gran Canaria, Canary Islands, Spain

current weather today, Freitag, 8. Mai 2026 and 10-day weather outlook. Check the Gran Canaria weather-status with data hourly provided from public Met-Services at… »»»

Pictures from Las Palmas Gran Canaria »»

Take a look at our Gran Canaria Images Galleries. pictures gran canaria and pics las palmas speak an international language and… »»»

Sightseeing in Las Palmas de Gran Canaria »»

archivo_historico_provincial_Las_Palmas.jpg

The districts: colonial houses, churches, lanes and places. Las Palmas is a very streched city. The older parts are located… »»»

Gran Canaria Arrivals at Airport Las Palmas, 08/05/2026 »»

Las Palmas Airport Arrivals Gran Canaria

Timetable of incoming flights to Las Palmas, at 13:03 UTC. Las Palmas Arrival Information Gran Canaria – Las Palmas Airport Arrivals in… »»»

Hotels & Apartments Reservation Las Palmas de Gran Canaria »»

apartment rentals direct booking & hotel accommodation requests for Las Palmas holidays

Request- & reservation form to make one ore more booking inquiries. In opposite to many larger & automatic web-databases the Las-Palmas-24.com team is… »»»